Pagrindinis puslapis
METAR-TAF:

METAR-TAF

Oro uostai :

Thule, Grenlandija

platuma: 76-32N, ilguma: 068-42W, Aukštis: 77 m

Dabartinis oras

Ataskaita buvo paskelbta 36 minutes, ne 22:56 UTC
Ramus vėjas
Temperatūra -2°C
Drėgmė 63%
Slėgis 1007 hPa
Matomumas 10 km arba daugiau
Giedras dangus

METAR: BGTL 192256Z AUTO 00000KT 9999 CLR M02/M08 A2975 RMK AO2 SLP061 T10221081 TSNO $

Laikas: 20:32 (23:32 UTC)

Prognozė

Ataskaita buvo paskelbta 6 valandos ir 32 minutes, ne 17:00 UTC
Prognozė galioja nuo 19 metu 17 UTC su 20 metu 23 UTC
Vėjas 6 kt iš Rytų
Matomumas: 2009 m
Išsisklaidę debesys ne aukštis 6000 ft

TAF: BGTL 191700Z 1917/2023 09006KT 9999 SCT060 QNH2956INS TX00/1918Z TNM08/2009Z LAST NO AMDS AFT 1919 NEXT 2009

Orai ataskaitas ir orų prognozės (METAR, TAF).

turimą stotys yra geltonos ir raudonos taškus žemėlapyje.

Perkelti pele per norėdami pamatyti stoties vardą.

Tada spustelėkite, norėdami matyti oro stebėjimo ir prognozės.

Norėdami pakeisti žemėlapį: spustelėkite ant žalios mygtukų su juodo kryžiaus žemyn,; žalią mygtuką su brūkšneliu, jei norite nutolinti; arba žalių rodyklių gretimoms žemėlapius.


METAR-TAF: